createdAt,value
2018-06-01T00:08:43.434Z,19.50
2018-06-01T00:11:25.678Z,22.70
2018-06-01T00:13:59.991Z,23.20
2018-06-01T00:17:03.629Z,23.80
2018-06-01T00:32:43.682Z,22.77
2018-06-01T00:35:31.289Z,29.10
2018-06-01T00:38:20.233Z,26.17
2018-06-01T00:41:14.806Z,34.60
2018-06-01T00:43:51.399Z,30.55
2018-06-01T00:46:26.061Z,28.77
2018-06-01T00:49:09.447Z,32.80
2018-06-01T00:51:59.536Z,28.43
2018-06-01T00:54:51.615Z,31.33
2018-06-01T00:57:30.798Z,34.30
2018-06-01T01:00:20.479Z,29.47
2018-06-01T01:05:55.099Z,39.87
2018-06-01T01:08:47.268Z,33.03
2018-06-01T01:11:23.382Z,35.57
2018-06-01T01:14:02.808Z,31.90
2018-06-01T01:16:39.186Z,34.60
2018-06-01T01:19:28.219Z,37.90
2018-06-01T01:22:05.489Z,34.23
2018-06-01T01:24:51.001Z,36.73
2018-06-01T01:27:27.571Z,32.70
2018-06-01T01:30:09.833Z,45.97
2018-06-01T01:32:50.521Z,39.90
2018-06-01T01:35:33.722Z,31.00
2018-06-01T01:38:10.944Z,34.30
2018-06-01T01:43:58.263Z,38.03
2018-06-01T01:46:40.565Z,37.20
2018-06-01T01:49:20.640Z,34.40
2018-06-01T01:51:54.270Z,39.83
2018-06-01T01:54:36.435Z,39.07
2018-06-01T01:57:30.283Z,43.40
2018-06-01T02:01:07.480Z,39.43
2018-06-01T02:03:41.635Z,32.13
2018-06-01T02:06:24.101Z,41.63
2018-06-01T02:09:05.135Z,39.10
2018-06-01T02:11:43.654Z,40.47
2018-06-01T02:14:40.930Z,41.33
2018-06-01T02:17:24.340Z,37.20
2018-06-01T02:26:10.122Z,39.73
2018-06-01T02:28:47.123Z,46.40
2018-06-01T02:31:28.681Z,40.73
2018-06-01T02:34:08.259Z,36.80
2018-06-01T02:36:52.079Z,38.50
2018-06-01T02:39:33.112Z,37.38
2018-06-01T02:42:06.637Z,36.80
2018-06-01T02:44:45.824Z,37.37
2018-06-01T02:47:24.362Z,41.43
2018-06-01T02:50:04.732Z,43.73
2018-06-01T02:53:22.705Z,41.03
2018-06-01T17:33:47.870Z,67.67
2018-06-01T17:39:30.147Z,74.65
2018-06-01T17:42:13.824Z,67.17
2018-06-01T17:44:54.600Z,58.87
2018-06-01T18:00:23.572Z,77.43
2018-06-01T18:13:30.017Z,61.90
2018-06-01T18:41:15.364Z,54.30
2018-06-01T19:42:58.822Z,39.58
2018-06-01T20:02:25.554Z,37.23
2018-06-01T20:05:48.875Z,32.77
2018-06-01T20:21:09.072Z,25.40
2018-06-01T20:27:09.256Z,26.70
2018-06-01T20:39:13.019Z,29.30
2018-06-01T20:48:10.325Z,32.20
2018-06-01T21:32:04.860Z,35.03
2018-06-01T21:55:43.504Z,54.33
2018-06-01T23:40:31.111Z,42.80
